sensor_id;sensor_type;location;lat;lon;timestamp;P1;durP1;ratioP1;P2;durP2;ratioP2
82296;SDS011;71899;51.992;8.648;2024-02-14T00:00:16;4.93;;;3.70;;
82296;SDS011;71899;51.992;8.648;2024-02-14T00:02:45;4.85;;;3.28;;
82296;SDS011;71899;51.992;8.648;2024-02-14T00:05:14;4.40;;;3.28;;
82296;SDS011;71899;51.992;8.648;2024-02-14T00:07:39;6.15;;;3.83;;
82296;SDS011;71899;51.992;8.648;2024-02-14T00:10:05;4.85;;;3.30;;
82296;SDS011;71899;51.992;8.648;2024-02-14T00:12:34;4.70;;;2.88;;
82296;SDS011;71899;51.992;8.648;2024-02-14T00:15:03;9.20;;;3.67;;
82296;SDS011;71899;51.992;8.648;2024-02-14T00:17:31;6.38;;;3.47;;
82296;SDS011;71899;51.992;8.648;2024-02-14T00:19:56;7.68;;;3.53;;
82296;SDS011;71899;51.992;8.648;2024-02-14T00:22:22;10.10;;;4.07;;
82296;SDS011;71899;51.992;8.648;2024-02-14T00:24:48;10.38;;;3.28;;
82296;SDS011;71899;51.992;8.648;2024-02-14T00:27:14;8.48;;;3.63;;
82296;SDS011;71899;51.992;8.648;2024-02-14T00:29:42;8.63;;;3.83;;
82296;SDS011;71899;51.992;8.648;2024-02-14T00:32:10;8.00;;;2.97;;
82296;SDS011;71899;51.992;8.648;2024-02-14T00:34:38;4.93;;;3.13;;
82296;SDS011;71899;51.992;8.648;2024-02-14T00:37:03;4.43;;;2.97;;
82296;SDS011;71899;51.992;8.648;2024-02-14T00:39:29;5.35;;;3.70;;
82296;SDS011;71899;51.992;8.648;2024-02-14T00:41:54;7.68;;;2.97;;
82296;SDS011;71899;51.992;8.648;2024-02-14T00:44:21;4.88;;;3.13;;
82296;SDS011;71899;51.992;8.648;2024-02-14T00:46:46;5.63;;;2.92;;
82296;SDS011;71899;51.992;8.648;2024-02-14T00:49:13;6.45;;;3.53;;
82296;SDS011;71899;51.992;8.648;2024-02-14T00:51:38;5.05;;;2.60;;
82296;SDS011;71899;51.992;8.648;2024-02-14T00:54:05;6.25;;;3.15;;
82296;SDS011;71899;51.992;8.648;2024-02-14T00:56:30;8.18;;;3.03;;
82296;SDS011;71899;51.992;8.648;2024-02-14T00:58:56;7.35;;;3.15;;
82296;SDS011;71899;51.992;8.648;2024-02-14T01:01:22;7.30;;;2.85;;
82296;SDS011;71899;51.992;8.648;2024-02-14T01:03:47;6.95;;;2.60;;
82296;SDS011;71899;51.992;8.648;2024-02-14T01:06:14;6.32;;;3.17;;
82296;SDS011;71899;51.992;8.648;2024-02-14T01:08:40;6.88;;;2.67;;
82296;SDS011;71899;51.992;8.648;2024-02-14T01:11:06;6.22;;;2.85;;
82296;SDS011;71899;51.992;8.648;2024-02-14T01:13:32;5.03;;;2.65;;
82296;SDS011;71899;51.992;8.648;2024-02-14T01:15:57;7.57;;;3.17;;
82296;SDS011;71899;51.992;8.648;2024-02-14T01:18:23;3.35;;;2.10;;
82296;SDS011;71899;51.992;8.648;2024-02-14T01:20:49;4.97;;;2.10;;
82296;SDS011;71899;51.992;8.648;2024-02-14T01:23:14;5.65;;;2.58;;
82296;SDS011;71899;51.992;8.648;2024-02-14T01:25:39;3.85;;;2.45;;
82296;SDS011;71899;51.992;8.648;2024-02-14T01:28:05;5.45;;;3.45;;
82296;SDS011;71899;51.992;8.648;2024-02-14T01:30:30;3.47;;;2.38;;
82296;SDS011;71899;51.992;8.648;2024-02-14T01:32:55;4.53;;;3.03;;
82296;SDS011;71899;51.992;8.648;2024-02-14T01:35:21;5.00;;;3.10;;
82296;SDS011;71899;51.992;8.648;2024-02-14T01:37:46;4.97;;;3.33;;
82296;SDS011;71899;51.992;8.648;2024-02-14T01:40:11;4.97;;;3.30;;
82296;SDS011;71899;51.992;8.648;2024-02-14T01:42:37;3.85;;;3.08;;
82296;SDS011;71899;51.992;8.648;2024-02-14T01:45:02;6.88;;;3.15;;
82296;SDS011;71899;51.992;8.648;2024-02-14T01:47:28;3.80;;;3.35;;
82296;SDS011;71899;51.992;8.648;2024-02-14T01:49:53;5.40;;;3.20;;
82296;SDS011;71899;51.992;8.648;2024-02-14T01:52:19;7.82;;;3.22;;
82296;SDS011;71899;51.992;8.648;2024-02-14T01:54:46;5.60;;;3.35;;
82296;SDS011;71899;51.992;8.648;2024-02-14T01:57:12;7.32;;;3.70;;
82296;SDS011;71899;51.992;8.648;2024-02-14T01:59:38;11.52;;;3.47;;
82296;SDS011;71899;51.992;8.648;2024-02-14T02:02:04;6.82;;;3.13;;
82296;SDS011;71899;51.992;8.648;2024-02-14T02:04:32;4.90;;;3.00;;
82296;SDS011;71899;51.992;8.648;2024-02-14T02:06:57;5.40;;;4.30;;
82296;SDS011;71899;51.992;8.648;2024-02-14T02:09:23;6.85;;;4.85;;
82296;SDS011;71899;51.992;8.648;2024-02-14T02:11:49;8.80;;;4.07;;
82296;SDS011;71899;51.992;8.648;2024-02-14T02:14:15;4.32;;;3.22;;
82296;SDS011;71899;51.992;8.648;2024-02-14T02:16:42;12.07;;;3.88;;
82296;SDS011;71899;51.992;8.648;2024-02-14T02:19:08;4.60;;;3.50;;
82296;SDS011;71899;51.992;8.648;2024-02-14T02:21:35;7.07;;;3.92;;
82296;SDS011;71899;51.992;8.648;2024-02-14T02:24:01;6.80;;;3.65;;
82296;SDS011;71899;51.992;8.648;2024-02-14T02:26:27;8.85;;;3.33;;
82296;SDS011;71899;51.992;8.648;2024-02-14T02:28:52;8.38;;;5.70;;
82296;SDS011;71899;51.992;8.648;2024-02-14T02:31:18;3.95;;;2.95;;
82296;SDS011;71899;51.992;8.648;2024-02-14T02:33:45;5.78;;;3.40;;
82296;SDS011;71899;51.992;8.648;2024-02-14T02:36:10;5.72;;;3.20;;
82296;SDS011;71899;51.992;8.648;2024-02-14T02:38:36;7.35;;;3.50;;
82296;SDS011;71899;51.992;8.648;2024-02-14T02:41:02;6.45;;;3.00;;
82296;SDS011;71899;51.992;8.648;2024-02-14T02:43:28;6.82;;;3.10;;
82296;SDS011;71899;51.992;8.648;2024-02-14T02:45:53;7.05;;;3.55;;
82296;SDS011;71899;51.992;8.648;2024-02-14T02:48:19;4.05;;;3.17;;
82296;SDS011;71899;51.992;8.648;2024-02-14T02:50:48;8.73;;;3.45;;
82296;SDS011;71899;51.992;8.648;2024-02-14T02:53:14;4.53;;;2.70;;
82296;SDS011;71899;51.992;8.648;2024-02-14T02:55:40;6.45;;;2.75;;
82296;SDS011;71899;51.992;8.648;2024-02-14T02:58:06;6.03;;;3.35;;
82296;SDS011;71899;51.992;8.648;2024-02-14T03:00:32;6.82;;;3.03;;
82296;SDS011;71899;51.992;8.648;2024-02-14T03:02:57;7.43;;;3.30;;
82296;SDS011;71899;51.992;8.648;2024-02-14T03:05:23;7.68;;;3.08;;
82296;SDS011;71899;51.992;8.648;2024-02-14T03:07:49;5.25;;;3.30;;
82296;SDS011;71899;51.992;8.648;2024-02-14T03:10:16;4.75;;;3.17;;
82296;SDS011;71899;51.992;8.648;2024-02-14T03:12:45;7.00;;;2.97;;
82296;SDS011;71899;51.992;8.648;2024-02-14T03:15:14;4.32;;;3.05;;
82296;SDS011;71899;51.992;8.648;2024-02-14T03:17:39;10.93;;;3.10;;
82296;SDS011;71899;51.992;8.648;2024-02-14T03:20:05;5.03;;;2.67;;
82296;SDS011;71899;51.992;8.648;2024-02-14T03:22:42;5.40;;;2.50;;
82296;SDS011;71899;51.992;8.648;2024-02-14T03:25:18;6.78;;;3.00;;
82296;SDS011;71899;51.992;8.648;2024-02-14T03:27:45;4.57;;;2.92;;
82296;SDS011;71899;51.992;8.648;2024-02-14T03:30:12;6.18;;;2.78;;
82296;SDS011;71899;51.992;8.648;2024-02-14T03:32:38;3.85;;;2.63;;
82296;SDS011;71899;51.992;8.648;2024-02-14T03:35:04;3.53;;;2.55;;
82296;SDS011;71899;51.992;8.648;2024-02-14T03:37:29;4.47;;;2.63;;
82296;SDS011;71899;51.992;8.648;2024-02-14T03:39:54;5.55;;;2.80;;
82296;SDS011;71899;51.992;8.648;2024-02-14T03:42:20;5.72;;;3.33;;
82296;SDS011;71899;51.992;8.648;2024-02-14T03:44:45;3.08;;;2.60;;
82296;SDS011;71899;51.992;8.648;2024-02-14T03:47:12;10.93;;;3.75;;
82296;SDS011;71899;51.992;8.648;2024-02-14T03:49:38;3.50;;;2.88;;
82296;SDS011;71899;51.992;8.648;2024-02-14T03:52:06;3.88;;;2.45;;
82296;SDS011;71899;51.992;8.648;2024-02-14T03:54:35;9.82;;;2.70;;
82296;SDS011;71899;51.992;8.648;2024-02-14T03:57:01;3.53;;;2.55;;
82296;SDS011;71899;51.992;8.648;2024-02-14T03:59:26;2.83;;;2.20;;
82296;SDS011;71899;51.992;8.648;2024-02-14T04:01:51;5.28;;;2.53;;
82296;SDS011;71899;51.992;8.648;2024-02-14T04:04:18;5.82;;;3.13;;
82296;SDS011;71899;51.992;8.648;2024-02-14T04:06:43;5.07;;;2.97;;
82296;SDS011;71899;51.992;8.648;2024-02-14T04:09:10;5.93;;;2.20;;
82296;SDS011;71899;51.992;8.648;2024-02-14T04:11:35;3.72;;;3.08;;
82296;SDS011;71899;51.992;8.648;2024-02-14T04:14:01;4.20;;;2.33;;
82296;SDS011;71899;51.992;8.648;2024-02-14T04:16:26;3.33;;;2.45;;
82296;SDS011;71899;51.992;8.648;2024-02-14T04:18:52;5.47;;;2.70;;
82296;SDS011;71899;51.992;8.648;2024-02-14T04:21:18;3.67;;;3.05;;
82296;SDS011;71899;51.992;8.648;2024-02-14T04:23:43;4.75;;;2.65;;
82296;SDS011;71899;51.992;8.648;2024-02-14T04:26:09;3.13;;;2.17;;
82296;SDS011;71899;51.992;8.648;2024-02-14T04:28:34;2.67;;;2.15;;
82296;SDS011;71899;51.992;8.648;2024-02-14T04:30:59;7.75;;;2.60;;
82296;SDS011;71899;51.992;8.648;2024-02-14T04:33:25;4.53;;;2.28;;
82296;SDS011;71899;51.992;8.648;2024-02-14T04:35:50;3.65;;;2.63;;
82296;SDS011;71899;51.992;8.648;2024-02-14T04:38:15;3.92;;;2.58;;
82296;SDS011;71899;51.992;8.648;2024-02-14T04:40:43;3.95;;;2.30;;
82296;SDS011;71899;51.992;8.648;2024-02-14T04:43:10;4.38;;;2.40;;
82296;SDS011;71899;51.992;8.648;2024-02-14T04:45:35;3.53;;;2.72;;
82296;SDS011;71899;51.992;8.648;2024-02-14T04:48:01;3.33;;;2.60;;
82296;SDS011;71899;51.992;8.648;2024-02-14T04:50:26;4.93;;;2.67;;
82296;SDS011;71899;51.992;8.648;2024-02-14T04:52:52;4.32;;;2.80;;
82296;SDS011;71899;51.992;8.648;2024-02-14T04:55:17;4.53;;;2.70;;
82296;SDS011;71899;51.992;8.648;2024-02-14T04:57:43;10.00;;;3.75;;
82296;SDS011;71899;51.992;8.648;2024-02-14T05:00:09;5.10;;;3.13;;
82296;SDS011;71899;51.992;8.648;2024-02-14T05:02:35;7.38;;;3.22;;
82296;SDS011;71899;51.992;8.648;2024-02-14T05:05:02;4.25;;;3.10;;
82296;SDS011;71899;51.992;8.648;2024-02-14T05:07:28;4.53;;;3.13;;
82296;SDS011;71899;51.992;8.648;2024-02-14T05:09:53;4.78;;;3.45;;
82296;SDS011;71899;51.992;8.648;2024-02-14T05:12:21;5.18;;;2.92;;
82296;SDS011;71899;51.992;8.648;2024-02-14T05:14:46;3.67;;;3.08;;
82296;SDS011;71899;51.992;8.648;2024-02-14T05:17:13;8.50;;;4.20;;
82296;SDS011;71899;51.992;8.648;2024-02-14T05:19:41;5.32;;;3.55;;
82296;SDS011;71899;51.992;8.648;2024-02-14T05:22:06;5.00;;;3.60;;
82296;SDS011;71899;51.992;8.648;2024-02-14T05:24:32;5.03;;;3.45;;
82296;SDS011;71899;51.992;8.648;2024-02-14T05:26:57;7.70;;;3.92;;
82296;SDS011;71899;51.992;8.648;2024-02-14T05:29:22;6.50;;;3.85;;
82296;SDS011;71899;51.992;8.648;2024-02-14T05:31:48;6.13;;;3.83;;
82296;SDS011;71899;51.992;8.648;2024-02-14T05:34:14;6.57;;;3.83;;
82296;SDS011;71899;51.992;8.648;2024-02-14T05:36:39;5.78;;;3.88;;
82296;SDS011;71899;51.992;8.648;2024-02-14T05:39:05;6.47;;;4.50;;
82296;SDS011;71899;51.992;8.648;2024-02-14T05:41:33;6.28;;;4.55;;
82296;SDS011;71899;51.992;8.648;2024-02-14T05:43:59;6.28;;;4.72;;
82296;SDS011;71899;51.992;8.648;2024-02-14T05:46:25;10.70;;;5.55;;
82296;SDS011;71899;51.992;8.648;2024-02-14T05:48:50;6.68;;;4.28;;
82296;SDS011;71899;51.992;8.648;2024-02-14T05:51:17;10.15;;;4.88;;
82296;SDS011;71899;51.992;8.648;2024-02-14T05:53:43;7.70;;;4.47;;
82296;SDS011;71899;51.992;8.648;2024-02-14T05:56:08;6.55;;;4.60;;
82296;SDS011;71899;51.992;8.648;2024-02-14T05:58:33;6.40;;;4.47;;
82296;SDS011;71899;51.992;8.648;2024-02-14T06:00:59;5.72;;;3.97;;
82296;SDS011;71899;51.992;8.648;2024-02-14T06:03:24;8.93;;;4.18;;
82296;SDS011;71899;51.992;8.648;2024-02-14T06:05:50;4.75;;;3.45;;
82296;SDS011;71899;51.992;8.648;2024-02-14T06:08:15;7.45;;;5.35;;
82296;SDS011;71899;51.992;8.648;2024-02-14T06:10:40;6.55;;;4.75;;
82296;SDS011;71899;51.992;8.648;2024-02-14T06:13:06;9.13;;;5.65;;
82296;SDS011;71899;51.992;8.648;2024-02-14T06:15:31;6.43;;;4.93;;
82296;SDS011;71899;51.992;8.648;2024-02-14T06:17:56;11.70;;;5.78;;
82296;SDS011;71899;51.992;8.648;2024-02-14T06:20:22;9.80;;;5.60;;
82296;SDS011;71899;51.992;8.648;2024-02-14T06:22:48;9.07;;;6.22;;
82296;SDS011;71899;51.992;8.648;2024-02-14T06:25:13;9.15;;;5.60;;
82296;SDS011;71899;51.992;8.648;2024-02-14T06:27:38;13.00;;;7.53;;
82296;SDS011;71899;51.992;8.648;2024-02-14T06:30:04;11.05;;;6.22;;
82296;SDS011;71899;51.992;8.648;2024-02-14T06:32:30;9.65;;;6.22;;
82296;SDS011;71899;51.992;8.648;2024-02-14T06:34:55;11.55;;;6.70;;
82296;SDS011;71899;51.992;8.648;2024-02-14T06:37:20;16.20;;;6.38;;
82296;SDS011;71899;51.992;8.648;2024-02-14T06:39:46;9.70;;;6.53;;
82296;SDS011;71899;51.992;8.648;2024-02-14T06:42:13;12.38;;;6.97;;
82296;SDS011;71899;51.992;8.648;2024-02-14T06:44:38;12.52;;;6.55;;
82296;SDS011;71899;51.992;8.648;2024-02-14T06:47:03;9.73;;;6.18;;
82296;SDS011;71899;51.992;8.648;2024-02-14T06:49:29;7.13;;;4.55;;
82296;SDS011;71899;51.992;8.648;2024-02-14T06:51:54;9.15;;;5.13;;
82296;SDS011;71899;51.992;8.648;2024-02-14T06:54:19;8.38;;;5.40;;
82296;SDS011;71899;51.992;8.648;2024-02-14T06:56:45;7.93;;;5.10;;
82296;SDS011;71899;51.992;8.648;2024-02-14T06:59:10;8.75;;;6.38;;
82296;SDS011;71899;51.992;8.648;2024-02-14T07:01:36;12.75;;;7.10;;
82296;SDS011;71899;51.992;8.648;2024-02-14T07:04:01;14.27;;;8.20;;
82296;SDS011;71899;51.992;8.648;2024-02-14T07:06:26;13.40;;;8.00;;
82296;SDS011;71899;51.992;8.648;2024-02-14T07:08:52;14.00;;;9.25;;
82296;SDS011;71899;51.992;8.648;2024-02-14T07:11:18;19.40;;;11.40;;
82296;SDS011;71899;51.992;8.648;2024-02-14T07:13:43;20.67;;;11.10;;
82296;SDS011;71899;51.992;8.648;2024-02-14T07:16:09;20.73;;;10.93;;
82296;SDS011;71899;51.992;8.648;2024-02-14T07:18:34;24.80;;;11.93;;
82296;SDS011;71899;51.992;8.648;2024-02-14T07:21:00;23.40;;;11.93;;
82296;SDS011;71899;51.992;8.648;2024-02-14T07:23:26;29.58;;;12.48;;
82296;SDS011;71899;51.992;8.648;2024-02-14T07:25:52;21.58;;;12.48;;
82296;SDS011;71899;51.992;8.648;2024-02-14T07:28:17;22.27;;;12.90;;
82296;SDS011;71899;51.992;8.648;2024-02-14T07:30:43;26.98;;;13.60;;
82296;SDS011;71899;51.992;8.648;2024-02-14T07:33:09;26.08;;;12.70;;
82296;SDS011;71899;51.992;8.648;2024-02-14T07:35:36;27.83;;;14.43;;
82296;SDS011;71899;51.992;8.648;2024-02-14T07:38:02;26.48;;;13.27;;
82296;SDS011;71899;51.992;8.648;2024-02-14T07:40:27;23.98;;;13.88;;
82296;SDS011;71899;51.992;8.648;2024-02-14T07:42:55;29.10;;;13.75;;
82296;SDS011;71899;51.992;8.648;2024-02-14T07:45:21;24.42;;;13.32;;
82296;SDS011;71899;51.992;8.648;2024-02-14T07:47:46;27.05;;;13.65;;
82296;SDS011;71899;51.992;8.648;2024-02-14T07:50:14;24.13;;;13.35;;
82296;SDS011;71899;51.992;8.648;2024-02-14T07:52:43;20.88;;;12.05;;
82296;SDS011;71899;51.992;8.648;2024-02-14T07:55:09;25.80;;;13.57;;
82296;SDS011;71899;51.992;8.648;2024-02-14T07:57:39;25.50;;;13.05;;
82296;SDS011;71899;51.992;8.648;2024-02-14T08:00:05;24.45;;;12.77;;
82296;SDS011;71899;51.992;8.648;2024-02-14T08:02:33;22.02;;;12.77;;
82296;SDS011;71899;51.992;8.648;2024-02-14T08:04:58;26.33;;;14.20;;
82296;SDS011;71899;51.992;8.648;2024-02-14T08:07:24;24.95;;;12.45;;
82296;SDS011;71899;51.992;8.648;2024-02-14T08:09:49;21.38;;;12.68;;
82296;SDS011;71899;51.992;8.648;2024-02-14T08:12:14;20.30;;;12.38;;
82296;SDS011;71899;51.992;8.648;2024-02-14T08:14:40;22.25;;;13.13;;
82296;SDS011;71899;51.992;8.648;2024-02-14T08:17:05;22.33;;;13.18;;
82296;SDS011;71899;51.992;8.648;2024-02-14T08:19:30;26.13;;;12.63;;
82296;SDS011;71899;51.992;8.648;2024-02-14T08:21:55;27.08;;;12.55;;
82296;SDS011;71899;51.992;8.648;2024-02-14T08:24:26;21.33;;;12.32;;
82296;SDS011;71899;51.992;8.648;2024-02-14T08:26:52;21.25;;;13.65;;
82296;SDS011;71899;51.992;8.648;2024-02-14T08:29:18;20.15;;;12.13;;
82296;SDS011;71899;51.992;8.648;2024-02-14T08:31:44;19.77;;;12.13;;
82296;SDS011;71899;51.992;8.648;2024-02-14T08:34:09;19.67;;;12.52;;
82296;SDS011;71899;51.992;8.648;2024-02-14T08:36:34;21.95;;;12.88;;
82296;SDS011;71899;51.992;8.648;2024-02-14T08:39:06;22.40;;;13.05;;
82296;SDS011;71899;51.992;8.648;2024-02-14T08:41:32;19.20;;;12.18;;
82296;SDS011;71899;51.992;8.648;2024-02-14T08:43:58;21.83;;;14.07;;
82296;SDS011;71899;51.992;8.648;2024-02-14T08:46:23;18.85;;;12.30;;
82296;SDS011;71899;51.992;8.648;2024-02-14T08:48:50;21.15;;;11.80;;
82296;SDS011;71899;51.992;8.648;2024-02-14T08:51:16;22.02;;;12.48;;
82296;SDS011;71899;51.992;8.648;2024-02-14T08:53:45;23.88;;;12.15;;
82296;SDS011;71899;51.992;8.648;2024-02-14T08:56:10;21.02;;;12.77;;
82296;SDS011;71899;51.992;8.648;2024-02-14T08:58:36;19.10;;;11.43;;
82296;SDS011;71899;51.992;8.648;2024-02-14T09:01:01;19.55;;;11.88;;
82296;SDS011;71899;51.992;8.648;2024-02-14T09:03:26;14.57;;;10.38;;
82296;SDS011;71899;51.992;8.648;2024-02-14T09:05:52;17.70;;;9.80;;
82296;SDS011;71899;51.992;8.648;2024-02-14T09:08:18;15.07;;;10.40;;
82296;SDS011;71899;51.992;8.648;2024-02-14T09:10:46;13.93;;;9.73;;
82296;SDS011;71899;51.992;8.648;2024-02-14T09:13:12;14.07;;;9.50;;
82296;SDS011;71899;51.992;8.648;2024-02-14T09:15:37;11.85;;;8.85;;
82296;SDS011;71899;51.992;8.648;2024-02-14T09:18:03;15.18;;;8.73;;
82296;SDS011;71899;51.992;8.648;2024-02-14T09:20:28;10.60;;;7.93;;
82296;SDS011;71899;51.992;8.648;2024-02-14T09:22:55;12.50;;;8.95;;
82296;SDS011;71899;51.992;8.648;2024-02-14T09:25:20;14.43;;;8.70;;
82296;SDS011;71899;51.992;8.648;2024-02-14T09:27:49;12.23;;;8.13;;
82296;SDS011;71899;51.992;8.648;2024-02-14T09:30:14;12.18;;;7.72;;
82296;SDS011;71899;51.992;8.648;2024-02-14T09:32:42;13.23;;;8.13;;
82296;SDS011;71899;51.992;8.648;2024-02-14T09:35:08;12.00;;;7.75;;
82296;SDS011;71899;51.992;8.648;2024-02-14T09:37:33;11.95;;;7.72;;
82296;SDS011;71899;51.992;8.648;2024-02-14T09:39:58;9.25;;;7.05;;
82296;SDS011;71899;51.992;8.648;2024-02-14T09:42:27;13.13;;;8.57;;
82296;SDS011;71899;51.992;8.648;2024-02-14T09:44:58;9.52;;;7.40;;
82296;SDS011;71899;51.992;8.648;2024-02-14T09:47:24;11.25;;;8.15;;
82296;SDS011;71899;51.992;8.648;2024-02-14T09:49:54;13.13;;;9.20;;
82296;SDS011;71899;51.992;8.648;2024-02-14T09:52:20;11.20;;;8.52;;
82296;SDS011;71899;51.992;8.648;2024-02-14T09:54:47;12.38;;;9.70;;
82296;SDS011;71899;51.992;8.648;2024-02-14T09:57:13;11.20;;;8.48;;
82296;SDS011;71899;51.992;8.648;2024-02-14T09:59:41;14.68;;;9.32;;
82296;SDS011;71899;51.992;8.648;2024-02-14T10:02:07;15.43;;;10.18;;
82296;SDS011;71899;51.992;8.648;2024-02-14T10:04:32;13.90;;;9.27;;
82296;SDS011;71899;51.992;8.648;2024-02-14T10:06:58;13.80;;;8.68;;
82296;SDS011;71899;51.992;8.648;2024-02-14T10:09:25;14.35;;;9.90;;
82296;SDS011;71899;51.992;8.648;2024-02-14T10:11:50;14.05;;;9.02;;
82296;SDS011;71899;51.992;8.648;2024-02-14T10:14:16;16.25;;;10.50;;
82296;SDS011;71899;51.992;8.648;2024-02-14T10:16:41;17.92;;;9.75;;
82296;SDS011;71899;51.992;8.648;2024-02-14T10:19:19;15.55;;;10.52;;
82296;SDS011;71899;51.992;8.648;2024-02-14T10:21:54;12.57;;;9.35;;
82296;SDS011;71899;51.992;8.648;2024-02-14T10:24:27;15.68;;;9.68;;
82296;SDS011;71899;51.992;8.648;2024-02-14T10:26:53;13.73;;;11.40;;
82296;SDS011;71899;51.992;8.648;2024-02-14T10:29:19;19.00;;;11.75;;
82296;SDS011;71899;51.992;8.648;2024-02-14T10:31:45;13.13;;;10.32;;
82296;SDS011;71899;51.992;8.648;2024-02-14T10:34:11;19.35;;;9.93;;
82296;SDS011;71899;51.992;8.648;2024-02-14T10:36:37;14.48;;;9.52;;
82296;SDS011;71899;51.992;8.648;2024-02-14T10:39:05;13.23;;;10.27;;
82296;SDS011;71899;51.992;8.648;2024-02-14T10:41:32;13.75;;;10.25;;
82296;SDS011;71899;51.992;8.648;2024-02-14T10:44:01;16.52;;;11.10;;
82296;SDS011;71899;51.992;8.648;2024-02-14T10:46:28;15.35;;;9.98;;
82296;SDS011;71899;51.992;8.648;2024-02-14T10:48:58;14.10;;;10.32;;
82296;SDS011;71899;51.992;8.648;2024-02-14T10:51:30;15.55;;;9.77;;
82296;SDS011;71899;51.992;8.648;2024-02-14T10:53:57;11.52;;;8.98;;
82296;SDS011;71899;51.992;8.648;2024-02-14T10:56:24;12.68;;;8.57;;
82296;SDS011;71899;51.992;8.648;2024-02-14T10:58:54;13.20;;;9.48;;
82296;SDS011;71899;51.992;8.648;2024-02-14T11:01:22;13.48;;;9.45;;
82296;SDS011;71899;51.992;8.648;2024-02-14T11:03:50;13.30;;;8.43;;
82296;SDS011;71899;51.992;8.648;2024-02-14T11:06:16;12.70;;;9.63;;
82296;SDS011;71899;51.992;8.648;2024-02-14T11:11:42;9.80;;;8.15;;
82296;SDS011;71899;51.992;8.648;2024-02-14T11:14:09;11.65;;;8.35;;
82296;SDS011;71899;51.992;8.648;2024-02-14T11:16:34;8.77;;;7.55;;
82296;SDS011;71899;51.992;8.648;2024-02-14T11:19:05;16.10;;;8.50;;
82296;SDS011;71899;51.992;8.648;2024-02-14T11:21:45;8.68;;;6.72;;
82296;SDS011;71899;51.992;8.648;2024-02-14T11:24:12;11.40;;;7.50;;
82296;SDS011;71899;51.992;8.648;2024-02-14T11:26:50;11.93;;;6.65;;
82296;SDS011;71899;51.992;8.648;2024-02-14T11:29:20;9.38;;;7.60;;
82296;SDS011;71899;51.992;8.648;2024-02-14T11:31:45;8.30;;;6.80;;
82296;SDS011;71899;51.992;8.648;2024-02-14T11:34:13;10.40;;;7.63;;
82296;SDS011;71899;51.992;8.648;2024-02-14T11:36:39;12.45;;;7.47;;
82296;SDS011;71899;51.992;8.648;2024-02-14T11:39:07;10.15;;;7.70;;
82296;SDS011;71899;51.992;8.648;2024-02-14T11:41:35;10.48;;;8.35;;
82296;SDS011;71899;51.992;8.648;2024-02-14T11:44:01;8.95;;;6.88;;
82296;SDS011;71899;51.992;8.648;2024-02-14T11:46:29;10.95;;;8.10;;
82296;SDS011;71899;51.992;8.648;2024-02-14T11:48:56;13.02;;;7.85;;
82296;SDS011;71899;51.992;8.648;2024-02-14T11:51:22;8.70;;;7.70;;
82296;SDS011;71899;51.992;8.648;2024-02-14T11:53:47;8.68;;;6.95;;
82296;SDS011;71899;51.992;8.648;2024-02-14T11:56:14;8.90;;;5.45;;
82296;SDS011;71899;51.992;8.648;2024-02-14T11:58:39;7.10;;;5.78;;
82296;SDS011;71899;51.992;8.648;2024-02-14T12:01:04;6.70;;;5.60;;
82296;SDS011;71899;51.992;8.648;2024-02-14T12:03:30;6.80;;;5.88;;
82296;SDS011;71899;51.992;8.648;2024-02-14T12:05:56;10.82;;;6.95;;
82296;SDS011;71899;51.992;8.648;2024-02-14T12:08:22;8.73;;;6.07;;
82296;SDS011;71899;51.992;8.648;2024-02-14T12:10:48;9.73;;;6.10;;
82296;SDS011;71899;51.992;8.648;2024-02-14T12:13:19;8.07;;;5.70;;
82296;SDS011;71899;51.992;8.648;2024-02-14T12:15:46;9.07;;;6.55;;
82296;SDS011;71899;51.992;8.648;2024-02-14T12:18:13;7.47;;;6.68;;
82296;SDS011;71899;51.992;8.648;2024-02-14T12:20:39;7.55;;;6.32;;
82296;SDS011;71899;51.992;8.648;2024-02-14T12:23:05;5.75;;;5.10;;
82296;SDS011;71899;51.992;8.648;2024-02-14T12:25:31;8.98;;;6.53;;
82296;SDS011;71899;51.992;8.648;2024-02-14T12:27:57;6.05;;;5.45;;
82296;SDS011;71899;51.992;8.648;2024-02-14T12:30:23;8.20;;;6.13;;
82296;SDS011;71899;51.992;8.648;2024-02-14T12:33:15;5.80;;;5.22;;
82296;SDS011;71899;51.992;8.648;2024-02-14T12:35:41;5.75;;;5.15;;
82296;SDS011;71899;51.992;8.648;2024-02-14T12:38:09;8.57;;;5.57;;
82296;SDS011;71899;51.992;8.648;2024-02-14T12:40:37;7.65;;;5.53;;
82296;SDS011;71899;51.992;8.648;2024-02-14T12:43:03;8.77;;;5.47;;
82296;SDS011;71899;51.992;8.648;2024-02-14T12:45:30;8.65;;;5.90;;
82296;SDS011;71899;51.992;8.648;2024-02-14T12:47:56;5.82;;;5.18;;
82296;SDS011;71899;51.992;8.648;2024-02-14T12:50:22;6.95;;;6.18;;
82296;SDS011;71899;51.992;8.648;2024-02-14T12:52:47;6.18;;;5.55;;
82296;SDS011;71899;51.992;8.648;2024-02-14T12:55:13;8.55;;;6.13;;
82296;SDS011;71899;51.992;8.648;2024-02-14T12:57:39;8.20;;;5.50;;
82296;SDS011;71899;51.992;8.648;2024-02-14T13:00:05;6.90;;;5.47;;
82296;SDS011;71899;51.992;8.648;2024-02-14T13:02:33;7.22;;;6.28;;
82296;SDS011;71899;51.992;8.648;2024-02-14T13:04:59;8.13;;;6.07;;
82296;SDS011;71899;51.992;8.648;2024-02-14T13:07:24;6.35;;;5.43;;
82296;SDS011;71899;51.992;8.648;2024-02-14T13:09:49;8.25;;;5.45;;
82296;SDS011;71899;51.992;8.648;2024-02-14T13:12:16;6.53;;;5.25;;
82296;SDS011;71899;51.992;8.648;2024-02-14T13:14:41;11.10;;;6.28;;
82296;SDS011;71899;51.992;8.648;2024-02-14T13:17:06;7.95;;;6.10;;
82296;SDS011;71899;51.992;8.648;2024-02-14T13:19:32;6.78;;;5.97;;
82296;SDS011;71899;51.992;8.648;2024-02-14T13:21:58;7.32;;;6.47;;
82296;SDS011;71899;51.992;8.648;2024-02-14T13:24:23;7.53;;;6.25;;
82296;SDS011;71899;51.992;8.648;2024-02-14T13:26:48;8.05;;;6.32;;
82296;SDS011;71899;51.992;8.648;2024-02-14T13:29:14;10.27;;;6.47;;
82296;SDS011;71899;51.992;8.648;2024-02-14T13:31:39;7.40;;;6.45;;
82296;SDS011;71899;51.992;8.648;2024-02-14T13:34:05;10.55;;;6.70;;
82296;SDS011;71899;51.992;8.648;2024-02-14T13:36:30;10.45;;;6.63;;
82296;SDS011;71899;51.992;8.648;2024-02-14T13:38:56;9.68;;;7.18;;
82296;SDS011;71899;51.992;8.648;2024-02-14T13:41:21;11.73;;;7.50;;
82296;SDS011;71899;51.992;8.648;2024-02-14T13:43:46;10.27;;;7.00;;
82296;SDS011;71899;51.992;8.648;2024-02-14T13:46:12;12.48;;;6.55;;
82296;SDS011;71899;51.992;8.648;2024-02-14T13:48:38;12.15;;;6.68;;
82296;SDS011;71899;51.992;8.648;2024-02-14T13:51:04;13.15;;;6.30;;
82296;SDS011;71899;51.992;8.648;2024-02-14T13:53:29;8.52;;;5.35;;
82296;SDS011;71899;51.992;8.648;2024-02-14T13:55:55;8.15;;;4.97;;
82296;SDS011;71899;51.992;8.648;2024-02-14T13:58:21;5.10;;;4.50;;
82296;SDS011;71899;51.992;8.648;2024-02-14T14:00:46;8.15;;;4.97;;
82296;SDS011;71899;51.992;8.648;2024-02-14T14:03:12;5.90;;;4.22;;
82296;SDS011;71899;51.992;8.648;2024-02-14T14:05:37;6.22;;;4.45;;
82296;SDS011;71899;51.992;8.648;2024-02-14T14:08:02;8.30;;;4.57;;
82296;SDS011;71899;51.992;8.648;2024-02-14T14:10:28;8.63;;;4.88;;
82296;SDS011;71899;51.992;8.648;2024-02-14T14:12:55;7.53;;;4.25;;
82296;SDS011;71899;51.992;8.648;2024-02-14T14:15:20;5.47;;;4.00;;
82296;SDS011;71899;51.992;8.648;2024-02-14T14:17:47;6.00;;;3.65;;
82296;SDS011;71899;51.992;8.648;2024-02-14T14:20:12;3.95;;;3.22;;
82296;SDS011;71899;51.992;8.648;2024-02-14T14:22:37;4.13;;;3.33;;
82296;SDS011;71899;51.992;8.648;2024-02-14T14:25:03;5.82;;;3.83;;
82296;SDS011;71899;51.992;8.648;2024-02-14T14:27:29;6.78;;;3.92;;
82296;SDS011;71899;51.992;8.648;2024-02-14T14:29:55;4.15;;;3.33;;
82296;SDS011;71899;51.992;8.648;2024-02-14T14:32:20;6.40;;;4.28;;
82296;SDS011;71899;51.992;8.648;2024-02-14T14:34:46;5.28;;;3.83;;
82296;SDS011;71899;51.992;8.648;2024-02-14T14:37:11;5.25;;;3.20;;